Weather reports worldwide

Advertisment
Gravesend, United Kingdom (3784): temperature & dewpoint: 21.04.2017 04:00:00 - 27.04.2017 04:00:00 (BST)Gravesend, United Kingdom (3784): wind speed & gusts: 21.04.2017 04:00:00 - 27.04.2017 04:00:00 (BST)Gravesend, United Kingdom (3784): wind direction: 21.04.2017 04:00:00 - 27.04.2017 04:00:00 (BST)Gravesend, United Kingdom (3784): reduced air pressure: 21.04.2017 04:00:00 - 27.04.2017 04:00:00 (BST)
Date & Time tt [°C] td [°C] ff [km/h] ff [kn] fx [km/h] fx [kn] dd ppp [hPa]
27.04.2017 04:00:00 - - - - - - - -
27.04.2017 03:00:00 2,9 1,0 9 5 - - WNW 1020,1
27.04.2017 02:00:00 3,3 1,6 11 6 - - NW 1020,2
27.04.2017 01:00:00 3,2 1,4 9 5 - - NW 1020,4
27.04.2017 00:00:00 3,3 1,6 9 5 - - NW 1020,3
26.04.2017 23:00:00 3,9 1,4 11 6 - - NNW 1020,2
26.04.2017 22:00:00 4,7 2,0 11 6 - - NW 1020,1
26.04.2017 21:00:00 5,3 1,4 9 5 - - NNW 1019,5
26.04.2017 20:00:00 6,6 1,5 16 9 - - N 1019,3
26.04.2017 19:00:00 6,9 1,6 16 9 - - N 1018,7
26.04.2017 18:00:00 6,9 1,7 21 11 - - NNW 1018,4
26.04.2017 17:00:00 9,8 2,8 16 9 - - NNW 1017,6
26.04.2017 16:00:00 8,3 3,5 13 7 55 30 N 1017,7
26.04.2017 15:00:00 10,4 1,1 21 11 48 26 N 1017,5
26.04.2017 14:00:00 7,8 2,3 16 9 - - N 1017,5
26.04.2017 13:00:00 7,4 3,6 9 5 - - NNW 1017,5
26.04.2017 12:00:00 7,6 0,8 21 11 - - NNW 1017,2
26.04.2017 11:00:00 8,8 2,7 16 9 - - NNW 1017,1
26.04.2017 10:00:00 6,5 2,0 15 8 - - NW 1017,0
26.04.2017 09:00:00 5,3 1,9 21 11 - - NW 1016,9
26.04.2017 08:00:00 4,6 1,5 16 9 - - NNW 1016,5
26.04.2017 07:00:00 3,8 1,6 16 9 - - NNW 1016,0
26.04.2017 06:00:00 3,4 1,4 21 11 - - NNW 1015,4
26.04.2017 05:00:00 3,1 1,5 16 9 - - NNW 1015,2
26.04.2017 04:00:00 2,6 1,0 16 9 - - NW 1015,0
26.04.2017 03:00:00 2,9 1,0 15 8 - - NW 1015,1
26.04.2017 02:00:00 3,0 0,9 15 8 - - NW 1015,2
26.04.2017 01:00:00 3,4 0,9 13 7 - - WNW 1015,3
26.04.2017 00:00:00 3,9 1,0 13 7 - - WNW 1015,1
25.04.2017 23:00:00 4,2 1,3 13 7 - - NW 1015,0
25.04.2017 22:00:00 4,8 0,6 15 8 - - NW 1014,6
25.04.2017 21:00:00 5,5 -0,1 21 11 - - NNW 1014,0
25.04.2017 20:00:00 6,0 -0,1 18 10 - - NNW 1013,5
25.04.2017 19:00:00 7,8 -0,5 26 14 - - N 1013,0
25.04.2017 18:00:00 8,8 -3,2 11 6 - - NNW 1012,5
25.04.2017 17:00:00 10,5 -3,0 13 7 - - NNW 1012,6
25.04.2017 16:00:00 11,1 -3,5 15 8 - - WNW 1012,9
25.04.2017 15:00:00 10,6 -2,2 16 9 - - NW 1013,4
25.04.2017 14:00:00 9,6 -5,2 16 9 - - WNW 1013,4
25.04.2017 13:00:00 8,0 -4,7 13 7 - - NW 1013,6
25.04.2017 12:00:00 8,1 -4,1 15 8 - - NW 1013,7
25.04.2017 11:00:00 7,8 -2,5 11 6 - - NW 1013,7
25.04.2017 10:00:00 7,1 -1,5 13 7 - - NW 1013,6
25.04.2017 09:00:00 5,6 -1,0 15 8 - - WNW 1013,5
25.04.2017 08:00:00 4,1 -1,4 18 10 - - WNW 1013,4
25.04.2017 07:00:00 3,1 -1,9 18 10 - - W 1013,0
25.04.2017 06:00:00 2,9 -2,3 21 11 - - W 1012,5
25.04.2017 05:00:00 2,8 -2,2 16 9 - - W 1012,2
25.04.2017 04:00:00 3,4 -2,1 18 10 - - W 1012,1
25.04.2017 03:00:00 4,1 -1,7 22 12 - - W 1012,3
25.04.2017 02:00:00 4,8 -2,1 24 13 - - W 1012,4
25.04.2017 01:00:00 5,6 -3,0 26 14 - - WNW 1012,5
25.04.2017 00:00:00 6,6 -2,8 22 12 - - WNW 1012,4
24.04.2017 23:00:00 8,2 -2,7 26 14 - - NW 1012,4
24.04.2017 22:00:00 9,2 0,2 18 10 - - WNW 1012,4
24.04.2017 21:00:00 9,7 5,1 16 9 - - W 1011,9
24.04.2017 20:00:00 9,3 6,2 11 6 - - WNW 1011,7
24.04.2017 19:00:00 10,4 7,7 11 6 - - WNW 1011,8
24.04.2017 18:00:00 12,5 7,1 16 9 - - WSW 1011,3
24.04.2017 17:00:00 11,8 8,9 11 6 - - SW 1011,8
24.04.2017 16:00:00 12,8 6,7 21 11 - - WSW 1012,6
24.04.2017 15:00:00 13,6 7,2 16 9 - - WSW 1013,3
24.04.2017 14:00:00 13,0 6,1 22 12 - - W 1014,3
24.04.2017 13:00:00 13,8 5,9 21 11 - - W 1014,9
24.04.2017 12:00:00 13,7 6,3 18 10 - - WSW 1015,7
24.04.2017 11:00:00 13,2 6,2 15 8 - - W 1016,3
24.04.2017 10:00:00 13,3 6,0 13 7 - - W 1016,6
24.04.2017 09:00:00 11,6 6,9 11 6 - - W 1017,1
24.04.2017 08:00:00 9,3 6,7 11 6 - - WSW 1017,7
24.04.2017 07:00:00 8,1 6,3 11 6 - - WSW 1017,9
24.04.2017 06:00:00 7,9 6,2 9 5 - - W 1018,2
24.04.2017 05:00:00 7,9 6,4 8 4 - - WSW 1018,5
24.04.2017 04:00:00 7,0 5,8 8 4 - - SW 1019,0
24.04.2017 03:00:00 8,3 6,8 11 6 - - WSW 1019,9
24.04.2017 02:00:00 7,5 5,9 8 4 - - SW 1020,4
24.04.2017 01:00:00 7,2 5,5 4 2 - - WSW 1021,1
24.04.2017 00:00:00 8,1 5,5 11 6 - - SSW 1021,7
23.04.2017 23:00:00 8,5 5,8 15 8 - - SSW 1022,1
23.04.2017 22:00:00 9,3 6,0 16 9 - - SSW 1022,6
23.04.2017 21:00:00 10,1 6,6 15 8 - - SSW 1022,7
23.04.2017 20:00:00 11,5 6,6 11 6 - - SSW 1022,6
23.04.2017 19:00:00 13,0 6,3 13 7 - - SSW 1022,8
23.04.2017 18:00:00 14,2 6,5 16 9 - - SSW 1023,1
23.04.2017 17:00:00 15,7 5,8 11 6 - - SSW 1023,4
23.04.2017 16:00:00 14,2 4,7 9 5 - - S 1024,2
23.04.2017 15:00:00 15,0 4,3 8 4 - - SW 1024,9
23.04.2017 14:00:00 13,8 3,3 5 3 - - SSW 1025,5
23.04.2017 13:00:00 13,7 3,1 11 6 - - SW 1026,2
23.04.2017 12:00:00 12,6 3,6 9 5 - - S 1026,9
23.04.2017 11:00:00 13,5 4,3 9 5 - - SSE 1027,4
23.04.2017 10:00:00 10,5 0,9 9 5 - - SE 1027,8
23.04.2017 09:00:00 9,1 2,0 9 5 - - S 1027,9
23.04.2017 08:00:00 8,5 2,8 5 3 - - SSE 1027,8
23.04.2017 07:00:00 7,8 3,4 4 2 - - S 1027,7
23.04.2017 06:00:00 7,4 2,8 5 3 - - SSE 1027,6
23.04.2017 05:00:00 8,3 2,0 8 4 - - SE 1027,8
23.04.2017 04:00:00 8,3 2,7 9 5 - - E 1027,9
23.04.2017 03:00:00 8,4 3,0 11 6 - - E 1028,1
23.04.2017 02:00:00 8,6 3,3 13 7 - - E 1028,3
23.04.2017 01:00:00 8,6 4,0 11 6 - - E 1028,6
23.04.2017 00:00:00 8,8 4,6 11 6 - - ESE 1028,6
22.04.2017 23:00:00 9,0 5,1 18 10 - - E 1028,5
22.04.2017 22:00:00 9,2 5,2 18 10 - - E 1028,1
22.04.2017 21:00:00 9,0 5,3 28 15 - - ENE 1027,7
22.04.2017 20:00:00 11,0 5,5 22 12 - - ENE 1026,9
22.04.2017 19:00:00 13,6 4,2 2 1 - - N 1026,4
22.04.2017 18:00:00 13,9 3,9 4 2 - - WSW 1026,6
22.04.2017 17:00:00 13,7 2,7 4 2 - - N 1026,9
22.04.2017 16:00:00 13,3 4,2 5 3 - - W 1027,4
22.04.2017 15:00:00 12,3 4,4 8 4 - - ESE 1028,1
22.04.2017 14:00:00 12,5 5,9 5 3 - - E 1028,9
22.04.2017 13:00:00 12,0 6,3 8 4 - - E 1029,1
22.04.2017 12:00:00 10,6 7,6 8 4 - - E 1029,5
22.04.2017 11:00:00 9,3 8,4 11 6 - - E 1029,5
22.04.2017 10:00:00 8,4 7,5 15 8 - - ENE 1029,3
22.04.2017 09:00:00 9,2 7,3 11 6 - - NNW 1029,0
22.04.2017 08:00:00 10,0 6,3 15 8 - - NW 1028,6
22.04.2017 07:00:00 10,2 6,4 11 6 - - NW 1028,2
22.04.2017 06:00:00 10,5 6,7 11 6 - - NW 1028,0
22.04.2017 05:00:00 10,9 6,6 11 6 - - WNW 1027,6
22.04.2017 04:00:00 11,3 6,3 13 7 - - WNW 1027,8
22.04.2017 03:00:00 11,7 6,5 13 7 - - WNW 1028,0
22.04.2017 02:00:00 12,1 6,5 15 8 - - WNW 1028,4
22.04.2017 01:00:00 12,4 6,3 15 8 - - WNW 1028,7
22.04.2017 00:00:00 12,8 5,5 15 8 - - W 1028,8
21.04.2017 23:00:00 12,8 5,9 13 7 - - W 1028,9
21.04.2017 22:00:00 13,1 5,7 13 7 - - W 1029,1
21.04.2017 21:00:00 13,2 5,8 11 6 - - WNW 1029,3
21.04.2017 20:00:00 13,5 5,8 13 7 - - WNW 1029,2
21.04.2017 19:00:00 13,9 5,3 16 9 - - WNW 1029,3
21.04.2017 18:00:00 14,3 5,5 16 9 - - W 1029,4
21.04.2017 17:00:00 14,4 5,6 15 8 - - WNW 1029,7
21.04.2017 16:00:00 14,8 6,1 18 10 - - WNW 1030,0
21.04.2017 15:00:00 15,4 6,2 15 8 - - WNW 1030,4
21.04.2017 14:00:00 15,0 6,6 13 7 - - WNW 1030,9
21.04.2017 13:00:00 14,8 6,7 16 9 - - W 1031,4
21.04.2017 12:00:00 13,8 7,9 8 4 - - WSW 1032,0
21.04.2017 11:00:00 12,8 8,0 11 6 - - WSW 1032,3
21.04.2017 10:00:00 11,7 7,8 11 6 - - WSW 1032,5
21.04.2017 09:00:00 11,0 7,7 13 7 - - WSW 1032,4
21.04.2017 08:00:00 10,4 7,7 11 6 - - SW 1032,2
21.04.2017 07:00:00 10,1 7,7 11 6 - - WSW 1032,1
21.04.2017 06:00:00 9,8 7,9 13 7 - - WSW 1031,9
21.04.2017 05:00:00 9,7 8,2 15 8 - - WSW 1032,1
21.04.2017 04:00:00 9,3 8,2 11 6 - - WSW 1032,4

tt = temperature
td = dewpoint
ff = wind speed
fx = gusts
dd = wind direction
ppp = reduced air pressure

Next stations